Dera Bugti Weather



Dera Bugti's Current Weather

Temprature 36.61o overcast clouds

overcast clouds

Rain: 0 %

Min Temprature36.61o
Max Temprature36.61o
Humidity14
Wind Speed5.16 m/h
Sun Rise05:36:33
Sun Set19:03:14
Current Time: 08-May-2021 15:16:07
Lat/Lon: 29.0307, 69.151




Dera Bugti's Geo Location



Dera Bugti's Weather Forecast

Time Overall Temp Min Temp Max Temp Humidity Wind Speed Rain
08-May-2021 (Sat)
17:00:00 overcast clouds 36.510 36.320 36.510 14 3.4 m/h 0 %
20:00:00 overcast clouds 34.570 33.550 34.570 17 0.56 m/h 0 %
23:00:00 overcast clouds 30.510 30.510 30.510 23 4.11 m/h 0 %
09-May-2021 (Sun)
02:00:00 scattered clouds 28.290 28.290 28.290 31 2.08 m/h 0 %
05:00:00 few clouds 27.970 27.970 27.970 31 2.06 m/h 0 %
08:00:00 clear sky 32.190 32.190 32.190 22 0.8 m/h 0 %
11:00:00 clear sky 36.540 36.540 36.540 14 2.23 m/h 0 %
14:00:00 clear sky 38.630 38.630 38.630 11 4.61 m/h 0 %
17:00:00 clear sky 38.260 38.260 38.260 10 4.07 m/h 0 %
20:00:00 clear sky 31.620 31.620 31.620 24 3.04 m/h 0 %
23:00:00 clear sky 31.710 31.710 31.710 21 1.45 m/h 0 %
10-May-2021 (Mon)
02:00:00 scattered clouds 29.410 29.410 29.410 26 1.33 m/h 0 %
05:00:00 broken clouds 29.060 29.060 29.060 27 1.45 m/h 0 %
08:00:00 overcast clouds 33.360 33.360 33.360 20 0.76 m/h 0 %
11:00:00 scattered clouds 37.390 37.390 37.390 14 2.93 m/h 0 %
14:00:00 clear sky 39.210 39.210 39.210 12 5.91 m/h 0 %
17:00:00 clear sky 35.780 35.780 35.780 17 2.77 m/h 0 %
20:00:00 few clouds 31.200 31.200 31.200 25 6.42 m/h 0 %
23:00:00 scattered clouds 31.950 31.950 31.950 22 2.17 m/h 0 %
11-May-2021 (Tue)
02:00:00 clear sky 29.830 29.830 29.830 25 0.41 m/h 0 %
05:00:00 clear sky 29.320 29.320 29.320 25 1.98 m/h 0 %
08:00:00 clear sky 33.610 33.610 33.610 19 1.49 m/h 0 %
11:00:00 few clouds 37.840 37.840 37.840 12 2.63 m/h 0 %
14:00:00 scattered clouds 39.750 39.750 39.750 10 3.26 m/h 0 %
17:00:00 scattered clouds 39.550 39.550 39.550 10 6.18 m/h 0 %
20:00:00 scattered clouds 35.340 35.340 35.340 16 5.86 m/h 0 %
23:00:00 broken clouds 33.700 33.700 33.700 17 4.96 m/h 0 %
12-May-2021 (Wed)
02:00:00 broken clouds 30.940 30.940 30.940 21 3.46 m/h 0 %
05:00:00 scattered clouds 29.950 29.950 29.950 20 2.03 m/h 0 %
08:00:00 clear sky 34.110 34.110 34.110 12 1.52 m/h 0 %
11:00:00 clear sky 37.270 37.270 37.270 10 3.73 m/h 0 %
14:00:00 clear sky 38.570 38.570 38.570 12 6.11 m/h 0 %
17:00:00 clear sky 37.830 37.830 37.830 12 6.01 m/h 0 %
20:00:00 clear sky 34.750 34.750 34.750 15 2.56 m/h 0 %
23:00:00 clear sky 32.240 32.240 32.240 17 2.48 m/h 0 %
13-May-2021 (Thu)
02:00:00 clear sky 26.410 26.410 26.410 44 4.56 m/h 0 %
05:00:00 clear sky 25.060 25.060 25.060 52 3.22 m/h 0 %
08:00:00 clear sky 27.970 27.970 27.970 43 3.55 m/h 0 %
11:00:00 clear sky 33.020 33.020 33.020 27 3.31 m/h 0 %
14:00:00 clear sky 36.010 36.010 36.010 19 4.64 m/h 0 %

Famous Cities (60)